createdAt,value
2018-09-25T00:01:06.678Z,0.47
2018-09-25T00:03:40.064Z,0.60
2018-09-25T00:06:14.110Z,0.60
2018-09-25T00:08:47.636Z,0.60
2018-09-25T00:11:21.275Z,0.70
2018-09-25T00:13:54.832Z,0.53
2018-09-25T00:16:28.629Z,0.53
2018-09-25T00:19:02.024Z,0.60
2018-09-25T00:21:35.624Z,0.77
2018-09-25T00:24:11.525Z,0.80
2018-09-25T00:26:45.489Z,0.60
2018-09-25T00:29:18.970Z,0.70
2018-09-25T00:31:52.593Z,0.50
2018-09-25T00:34:26.170Z,0.80
2018-09-25T00:36:59.808Z,0.60
2018-09-25T00:39:33.520Z,0.53
2018-09-25T00:42:07.728Z,0.60
2018-09-25T00:44:41.540Z,0.70
2018-09-25T00:47:14.934Z,0.57
2018-09-25T00:49:48.247Z,0.63
2018-09-25T00:52:21.576Z,0.70
2018-09-25T00:54:55.429Z,0.73
2018-09-25T00:57:28.811Z,0.60
2018-09-25T01:00:02.544Z,0.57
2018-09-25T01:02:35.954Z,0.60
2018-09-25T01:05:09.608Z,0.90
2018-09-25T01:07:43.349Z,0.77
2018-09-25T01:10:17.068Z,0.70
2018-09-25T01:12:50.519Z,0.40
2018-09-25T01:15:24.253Z,0.60
2018-09-25T01:17:57.668Z,0.60
2018-09-25T01:20:31.467Z,0.60
2018-09-25T01:23:04.822Z,0.60
2018-09-25T01:25:38.359Z,0.87
2018-09-25T01:28:11.577Z,0.80
2018-09-25T01:30:44.956Z,0.60
2018-09-25T01:33:18.243Z,0.60
2018-09-25T01:35:51.840Z,0.97
2018-09-25T01:38:25.296Z,0.60
2018-09-25T01:40:58.712Z,0.80
2018-09-25T01:43:32.093Z,0.60
2018-09-25T01:46:05.951Z,0.60
2018-09-25T01:48:39.293Z,0.80
2018-09-25T01:51:12.943Z,0.67
2018-09-25T01:53:46.352Z,0.63
2018-09-25T01:56:20.499Z,0.73
2018-09-25T01:58:53.879Z,0.67
2018-09-25T02:01:27.795Z,0.60
2018-09-25T02:04:01.245Z,0.77
2018-09-25T02:06:34.880Z,0.77
2018-09-25T02:09:08.360Z,0.50
2018-09-25T02:11:41.987Z,0.60
2018-09-25T02:14:15.405Z,0.87
2018-09-25T02:16:48.889Z,0.90
2018-09-25T02:19:22.413Z,0.80
2018-09-25T02:21:55.868Z,0.87
2018-09-25T02:24:29.258Z,0.70
2018-09-25T02:27:03.013Z,0.70
2018-09-25T02:29:36.316Z,0.93
2018-09-25T02:32:10.300Z,0.83
2018-09-25T02:34:43.678Z,0.70
2018-09-25T02:37:17.401Z,0.80
2018-09-25T02:39:50.720Z,0.90
2018-09-25T02:42:24.154Z,0.80
2018-09-25T02:44:57.641Z,0.77
2018-09-25T02:47:31.480Z,0.57
2018-09-25T02:50:04.788Z,0.60
2018-09-25T02:52:38.433Z,0.70
2018-09-25T02:55:12.007Z,0.77
2018-09-25T02:57:45.723Z,0.60
2018-09-25T03:00:19.215Z,0.70
2018-09-25T03:02:53.039Z,0.77
2018-09-25T03:05:26.329Z,0.70
2018-09-25T03:08:00.218Z,0.60
2018-09-25T03:10:33.634Z,0.70
2018-09-25T03:13:07.231Z,0.60
2018-09-25T03:15:40.732Z,0.73
2018-09-25T03:18:14.143Z,0.60
2018-09-25T03:20:47.495Z,0.60
2018-09-25T03:23:21.471Z,0.70
2018-09-25T03:25:54.773Z,0.80
2018-09-25T03:28:28.482Z,0.80
2018-09-25T03:31:01.921Z,0.67
2018-09-25T03:33:35.632Z,0.80
2018-09-25T03:36:10.631Z,0.53
2018-09-25T03:38:44.049Z,0.60
2018-09-25T03:41:17.983Z,0.83
2018-09-25T03:43:51.435Z,0.80
2018-09-25T03:46:24.963Z,0.90
2018-09-25T03:48:59.084Z,1.00
2018-09-25T03:51:32.996Z,0.50
2018-09-25T03:54:07.435Z,0.90
2018-09-25T03:56:41.361Z,0.87
2018-09-25T03:59:14.700Z,0.70
2018-09-25T04:01:48.225Z,0.60
2018-09-25T04:04:21.746Z,0.77
2018-09-25T04:06:55.338Z,0.70
2018-09-25T04:09:28.908Z,0.73
2018-09-25T04:12:02.319Z,0.67
2018-09-25T04:14:36.037Z,0.73
2018-09-25T04:17:10.265Z,0.80
2018-09-25T04:19:43.714Z,0.63
2018-09-25T04:22:17.173Z,0.70
2018-09-25T04:24:50.654Z,0.83
2018-09-25T04:27:24.041Z,0.90
2018-09-25T04:29:57.725Z,0.90
2018-09-25T04:32:31.293Z,0.77
2018-09-25T04:35:04.651Z,0.70
2018-09-25T04:37:38.049Z,0.80
2018-09-25T04:40:11.645Z,0.77
2018-09-25T04:42:45.188Z,0.90
2018-09-25T04:45:18.765Z,0.80
2018-09-25T04:47:52.230Z,0.70
2018-09-25T04:50:26.279Z,0.80
2018-09-25T04:53:00.162Z,1.07
2018-09-25T04:55:34.201Z,1.00
2018-09-25T04:58:07.914Z,0.93
2018-09-25T05:00:41.536Z,0.80
2018-09-25T05:03:15.034Z,0.93
2018-09-25T05:05:48.609Z,1.30
2018-09-25T05:08:21.977Z,0.90
2018-09-25T05:10:55.332Z,0.80
2018-09-25T05:13:28.702Z,1.00
2018-09-25T05:16:02.192Z,1.00
2018-09-25T05:18:35.621Z,0.90
2018-09-25T05:21:10.480Z,1.07
2018-09-25T05:23:43.949Z,0.87
2018-09-25T05:26:18.179Z,1.00
2018-09-25T05:28:51.529Z,0.90
2018-09-25T05:31:25.061Z,0.97
2018-09-25T05:33:58.463Z,1.00
2018-09-25T05:36:32.155Z,1.37
2018-09-25T05:39:05.638Z,0.90
2018-09-25T05:41:39.041Z,0.93
2018-09-25T05:44:12.338Z,0.80
2018-09-25T05:46:45.938Z,0.90
2018-09-25T05:49:19.321Z,0.87
2018-09-25T05:51:52.755Z,0.90
2018-09-25T05:54:26.104Z,1.00
2018-09-25T05:57:00.054Z,0.90
2018-09-25T05:59:33.244Z,0.80
2018-09-25T06:02:06.939Z,0.70
2018-09-25T06:04:40.196Z,0.87
2018-09-25T06:07:13.736Z,0.90
2018-09-25T06:09:47.425Z,0.70
2018-09-25T06:12:20.846Z,0.70
2018-09-25T06:14:54.150Z,0.60
2018-09-25T06:17:27.760Z,0.77
2018-09-25T06:20:01.029Z,0.77
2018-09-25T06:22:34.556Z,0.90
2018-09-25T06:25:07.991Z,0.83
2018-09-25T06:27:41.658Z,1.00
2018-09-25T06:30:15.038Z,0.93
2018-09-25T06:32:48.601Z,1.00
2018-09-25T06:35:22.032Z,0.90
2018-09-25T06:37:55.496Z,0.70
2018-09-25T06:40:28.902Z,1.00
2018-09-25T06:43:02.617Z,1.00
2018-09-25T06:45:35.835Z,0.80
2018-09-25T06:48:11.149Z,0.97
2018-09-25T06:50:44.466Z,0.70
2018-09-25T06:53:18.064Z,0.80
2018-09-25T06:55:51.658Z,0.60
2018-09-25T06:58:25.382Z,0.93
2018-09-25T07:00:58.703Z,0.70
2018-09-25T07:03:32.585Z,0.80
2018-09-25T07:06:06.157Z,1.20
2018-09-25T07:08:39.797Z,1.00
2018-09-25T07:11:13.069Z,0.63
2018-09-25T07:13:46.501Z,0.97
2018-09-25T07:16:19.858Z,0.93
2018-09-25T07:18:53.459Z,0.73
2018-09-25T07:21:26.873Z,0.87
2018-09-25T07:24:00.495Z,0.90
2018-09-25T07:26:33.808Z,1.00
2018-09-25T07:29:07.611Z,0.73
2018-09-25T07:31:41.076Z,0.90
2018-09-25T07:34:15.102Z,0.80
2018-09-25T07:36:48.502Z,1.00
2018-09-25T07:39:21.936Z,1.03
2018-09-25T07:41:55.385Z,0.70
2018-09-25T07:44:29.016Z,0.80
2018-09-25T07:47:02.384Z,0.83
2018-09-25T07:49:36.337Z,0.90
2018-09-25T07:52:09.762Z,0.80
2018-09-25T07:54:43.136Z,1.20
2018-09-25T07:57:16.933Z,0.67
2018-09-25T07:59:50.642Z,0.87
2018-09-25T08:02:23.992Z,0.90
2018-09-25T08:04:57.771Z,0.80
2018-09-25T08:07:31.177Z,0.90
2018-09-25T08:10:04.828Z,0.83
2018-09-25T08:12:38.094Z,0.77
2018-09-25T08:15:11.484Z,0.77
2018-09-25T08:17:44.702Z,0.80
2018-09-25T08:20:18.418Z,1.20
2018-09-25T08:22:51.737Z,0.97
2018-09-25T08:25:25.425Z,1.13
2018-09-25T08:27:58.814Z,0.70
2018-09-25T08:30:32.624Z,0.90
2018-09-25T08:33:05.924Z,0.90
2018-09-25T08:35:39.529Z,0.80
2018-09-25T08:38:12.894Z,1.03
2018-09-25T08:40:46.525Z,0.93
2018-09-25T08:43:20.003Z,0.70
2018-09-25T08:45:53.414Z,0.60
2018-09-25T08:48:26.799Z,0.93
2018-09-25T08:51:00.208Z,0.70
2018-09-25T08:53:33.525Z,0.80
2018-09-25T08:56:07.332Z,0.70
2018-09-25T08:58:41.403Z,0.80
2018-09-25T09:01:15.386Z,0.80
2018-09-25T09:03:49.011Z,0.70
2018-09-25T09:06:22.314Z,0.70
2018-09-25T09:08:56.158Z,0.70
2018-09-25T09:11:29.435Z,0.80
2018-09-25T09:14:03.068Z,0.73
2018-09-25T09:16:36.449Z,0.83
2018-09-25T09:19:10.059Z,0.90
2018-09-25T09:21:43.284Z,0.90
2018-09-25T09:24:16.874Z,0.80
2018-09-25T09:26:50.140Z,0.60
2018-09-25T09:29:23.750Z,0.80
2018-09-25T09:31:57.122Z,0.70
2018-09-25T09:34:30.785Z,1.03
2018-09-25T09:37:03.973Z,0.60
2018-09-25T09:39:37.566Z,1.07
2018-09-25T09:42:11.037Z,0.77
2018-09-25T09:44:44.708Z,0.73
2018-09-25T09:47:18.144Z,0.90
2018-09-25T09:49:51.771Z,0.80
2018-09-25T09:52:25.072Z,0.77
2018-09-25T09:54:58.505Z,0.93
2018-09-25T09:57:31.959Z,0.60
2018-09-25T10:00:05.773Z,0.80
2018-09-25T10:02:40.502Z,0.60
2018-09-25T10:05:14.548Z,0.60
2018-09-25T10:07:48.109Z,0.53
2018-09-25T10:10:21.719Z,0.70
2018-09-25T10:12:55.086Z,0.80
2018-09-25T10:15:28.602Z,0.50
2018-09-25T10:18:01.877Z,0.60
2018-09-25T10:20:35.525Z,0.73
2018-09-25T10:23:08.740Z,0.60
2018-09-25T10:25:42.254Z,0.90
2018-09-25T10:28:15.561Z,0.60
2018-09-25T10:30:48.896Z,0.60
2018-09-25T10:33:22.152Z,0.50
2018-09-25T10:35:55.851Z,0.80
2018-09-25T10:38:30.913Z,0.70
2018-09-25T10:41:10.557Z,0.80
2018-09-25T10:43:43.734Z,0.47
2018-09-25T10:46:24.838Z,0.70
2018-09-25T10:48:58.205Z,0.50
2018-09-25T10:51:31.652Z,0.60
2018-09-25T10:54:05.006Z,0.47
2018-09-25T10:56:38.495Z,0.50
2018-09-25T10:59:11.809Z,0.70
2018-09-25T11:01:45.412Z,0.67
2018-09-25T11:04:19.348Z,0.47
2018-09-25T11:06:52.940Z,0.53
2018-09-25T11:09:26.141Z,0.50
2018-09-25T11:11:59.732Z,0.43
2018-09-25T11:14:33.044Z,0.80
2018-09-25T11:17:06.300Z,0.67
2018-09-25T11:19:39.794Z,0.40
2018-09-25T11:22:13.417Z,0.70
2018-09-25T11:24:46.668Z,0.47
2018-09-25T11:27:20.635Z,0.50
2018-09-25T11:29:54.174Z,0.50
2018-09-25T11:32:27.833Z,0.60
2018-09-25T11:35:01.233Z,0.80
2018-09-25T11:37:35.055Z,0.57
2018-09-25T11:40:08.233Z,0.70
2018-09-25T11:42:42.032Z,0.50
2018-09-25T11:45:15.435Z,0.60
2018-09-25T11:47:48.856Z,0.60
2018-09-25T11:50:22.210Z,0.60
2018-09-25T11:52:55.750Z,0.50
2018-09-25T11:55:29.061Z,0.50
2018-09-25T11:58:02.444Z,0.40
2018-09-25T12:00:35.810Z,0.40
2018-09-25T12:03:09.322Z,0.40
2018-09-25T12:05:43.029Z,0.50
2018-09-25T12:08:16.628Z,0.40
2018-09-25T12:10:50.018Z,0.50
2018-09-25T12:13:23.690Z,0.53
2018-09-25T12:15:57.149Z,0.40
2018-09-25T12:18:30.845Z,0.40
2018-09-25T12:21:04.057Z,0.40
2018-09-25T12:23:37.714Z,0.50
2018-09-25T12:26:11.395Z,0.43
2018-09-25T12:28:44.936Z,0.50
2018-09-25T12:31:18.199Z,0.60
2018-09-25T12:33:51.803Z,0.50
2018-09-25T12:36:25.105Z,0.50
2018-09-25T12:38:59.301Z,0.40
2018-09-25T12:41:32.526Z,0.30
2018-09-25T12:44:06.361Z,0.60
2018-09-25T12:46:39.655Z,0.50
2018-09-25T12:49:12.958Z,0.30
2018-09-25T12:51:46.679Z,0.53
2018-09-25T12:54:20.607Z,0.30
2018-09-25T12:56:54.260Z,0.70
2018-09-25T12:59:27.777Z,0.40
2018-09-25T13:02:01.268Z,0.40
2018-09-25T13:04:34.972Z,0.30
2018-09-25T13:07:08.953Z,0.33
2018-09-25T13:09:42.928Z,0.67
2018-09-25T13:12:16.312Z,0.40
2018-09-25T13:14:49.841Z,0.70
2018-09-25T13:17:23.209Z,0.47
2018-09-25T13:19:56.797Z,0.40
2018-09-25T13:22:30.170Z,0.50
2018-09-25T13:25:03.894Z,0.57
2018-09-25T13:27:37.577Z,0.40
2018-09-25T13:30:11.009Z,0.40
2018-09-25T13:32:44.207Z,0.47
2018-09-25T13:35:18.013Z,0.60
2018-09-25T13:37:51.277Z,0.50
2018-09-25T13:40:24.930Z,0.50
2018-09-25T13:42:58.188Z,0.50
2018-09-25T13:45:38.121Z,0.50
2018-09-25T13:48:20.856Z,0.40
2018-09-25T13:50:54.762Z,0.60
2018-09-25T13:53:28.004Z,0.60
2018-09-25T13:56:01.322Z,0.60
2018-09-25T13:58:34.741Z,0.50
2018-09-25T14:01:09.480Z,0.50
2018-09-25T14:03:42.833Z,0.70
2018-09-25T14:06:16.432Z,0.47
2018-09-25T14:08:49.644Z,0.50
2018-09-25T14:11:23.027Z,0.47
2018-09-25T14:13:56.389Z,0.50
2018-09-25T14:16:30.193Z,0.50
2018-09-25T14:19:06.442Z,0.43
2018-09-25T14:21:40.574Z,0.60
2018-09-25T14:24:13.935Z,0.30
2018-09-25T14:26:47.466Z,0.73
2018-09-25T14:29:20.844Z,0.80
2018-09-25T14:31:54.293Z,0.50
2018-09-25T14:34:28.070Z,0.50
2018-09-25T14:37:01.457Z,0.50
2018-09-25T14:39:34.777Z,0.50
2018-09-25T14:42:08.375Z,0.60
2018-09-25T14:44:42.154Z,0.63
2018-09-25T14:47:15.540Z,0.50
2018-09-25T14:49:49.068Z,0.60
2018-09-25T14:52:22.324Z,0.60
2018-09-25T14:54:57.161Z,0.70
2018-09-25T14:57:30.397Z,0.50
2018-09-25T15:00:03.976Z,0.73
2018-09-25T15:02:37.278Z,0.43
2018-09-25T15:05:10.838Z,0.60
2018-09-25T15:07:44.387Z,0.50
2018-09-25T15:10:17.957Z,0.50
2018-09-25T15:12:51.298Z,0.30
2018-09-25T15:15:25.100Z,0.50
2018-09-25T15:17:58.372Z,0.70
2018-09-25T15:20:32.101Z,0.40
2018-09-25T15:23:05.492Z,0.50
2018-09-25T15:25:39.416Z,0.50
2018-09-25T15:28:12.765Z,0.43
2018-09-25T15:30:46.227Z,0.60
2018-09-25T15:33:19.636Z,0.60
2018-09-25T15:35:53.349Z,0.60
2018-09-25T15:38:26.675Z,0.50
2018-09-25T15:42:10.155Z,0.50
2018-09-25T15:44:43.456Z,0.53
2018-09-25T15:47:16.948Z,0.40
2018-09-25T15:49:50.258Z,0.70
2018-09-25T15:52:24.107Z,0.43
2018-09-25T15:54:57.472Z,0.50
2018-09-25T15:57:31.213Z,0.57
2018-09-25T16:00:04.574Z,0.60
2018-09-25T16:02:38.402Z,0.90
2018-09-25T16:05:11.716Z,0.67
2018-09-25T16:07:45.400Z,0.83
2018-09-25T16:10:18.624Z,0.63
2018-09-25T16:12:52.080Z,0.70
2018-09-25T16:15:25.888Z,0.53
2018-09-25T16:17:59.507Z,0.63
2018-09-25T16:20:32.897Z,0.67
2018-09-25T16:23:06.613Z,0.50
2018-09-25T16:25:39.987Z,0.70
2018-09-25T16:28:13.589Z,0.50
2018-09-25T16:30:46.922Z,0.53
2018-09-25T16:33:20.455Z,0.80
2018-09-25T16:35:54.018Z,0.60
2018-09-25T16:38:27.807Z,0.73
2018-09-25T16:41:01.081Z,0.60
2018-09-25T16:43:34.800Z,0.80
2018-09-25T16:46:38.947Z,0.60
2018-09-25T16:49:46.697Z,0.80
2018-09-25T16:52:44.613Z,0.90
2018-09-25T16:55:44.067Z,0.70
2018-09-25T16:58:40.933Z,0.80
2018-09-25T17:01:37.342Z,0.77
2018-09-25T17:04:30.681Z,0.70
2018-09-25T17:07:04.372Z,0.60
2018-09-25T17:09:37.563Z,0.83
2018-09-25T17:12:10.873Z,0.83
2018-09-25T17:14:44.241Z,0.90
2018-09-25T17:17:18.150Z,1.17
2018-09-25T17:19:51.563Z,1.10
2018-09-25T17:22:25.469Z,1.53
2018-09-25T17:24:58.956Z,0.80
2018-09-25T17:27:32.402Z,1.10
2018-09-25T17:30:05.749Z,1.20
2018-09-25T17:32:39.215Z,1.23
2018-09-25T17:35:12.957Z,1.40
2018-09-25T17:37:49.117Z,1.20
2018-09-25T17:40:35.585Z,1.23
2018-09-25T17:43:28.695Z,1.10
2018-09-25T17:46:40.581Z,1.40
2018-09-25T17:49:14.123Z,1.30
2018-09-25T17:51:48.081Z,1.23
2018-09-25T17:54:21.464Z,1.03
2018-09-25T17:56:55.066Z,1.20
2018-09-25T17:59:28.471Z,1.23
2018-09-25T18:02:02.040Z,1.30
2018-09-25T18:04:36.106Z,1.53
2018-09-25T18:07:09.749Z,1.50
2018-09-25T18:09:43.211Z,1.30
2018-09-25T18:12:17.309Z,1.30
2018-09-25T18:14:50.687Z,1.70
2018-09-25T18:17:25.041Z,1.43
2018-09-25T18:19:58.730Z,1.50
2018-09-25T18:22:32.617Z,1.37
2018-09-25T18:25:06.116Z,1.60
2018-09-25T18:27:40.908Z,1.40
2018-09-25T18:30:14.471Z,1.77
2018-09-25T18:32:47.979Z,1.10
2018-09-25T18:35:21.326Z,1.07
2018-09-25T18:37:55.198Z,1.10
2018-09-25T18:40:28.622Z,1.30
2018-09-25T18:43:02.154Z,1.33
2018-09-25T18:45:35.537Z,1.10
2018-09-25T18:48:09.122Z,0.83
2018-09-25T18:50:42.632Z,1.00
2018-09-25T18:53:16.667Z,1.10
2018-09-25T18:55:50.047Z,0.97
2018-09-25T18:58:23.638Z,1.10
2018-09-25T19:00:56.831Z,0.90
2018-09-25T19:03:30.566Z,1.23
2018-09-25T19:06:04.172Z,1.20
2018-09-25T19:08:41.247Z,1.10
2018-09-25T19:11:14.624Z,1.60
2018-09-25T19:13:48.118Z,1.67
2018-09-25T19:16:21.428Z,1.37
2018-09-25T19:18:55.096Z,1.30
2018-09-25T19:21:28.824Z,1.03
2018-09-25T19:24:02.280Z,1.20
2018-09-25T19:26:35.854Z,1.30
2018-09-25T19:29:09.404Z,1.10
2018-09-25T19:31:42.809Z,1.00
2018-09-25T19:34:16.194Z,1.10
2018-09-25T19:36:49.853Z,1.20
2018-09-25T19:39:23.249Z,1.10
2018-09-25T19:41:56.665Z,1.30
2018-09-25T19:44:30.197Z,1.57
2018-09-25T19:47:03.969Z,1.63
2018-09-25T19:49:37.438Z,1.97
2018-09-25T19:52:10.951Z,2.07
2018-09-25T19:54:44.672Z,2.13
2018-09-25T19:57:17.950Z,2.37
2018-09-25T19:59:51.832Z,2.53
2018-09-25T20:02:25.172Z,2.57
2018-09-25T20:04:59.091Z,2.53
2018-09-25T20:07:32.486Z,2.43
2018-09-25T20:10:06.283Z,1.97
2018-09-25T20:12:40.424Z,1.87
2018-09-25T20:15:22.208Z,2.10
2018-09-25T20:17:55.704Z,1.83
2018-09-25T20:20:29.201Z,1.47
2018-09-25T20:23:03.431Z,1.50
2018-09-25T20:25:36.826Z,1.47
2018-09-25T20:28:10.286Z,1.57
2018-09-25T20:30:43.765Z,1.27
2018-09-25T20:33:17.246Z,1.13
2018-09-25T20:35:51.134Z,1.20
2018-09-25T20:38:24.616Z,1.20
2018-09-25T20:40:58.209Z,1.30
2018-09-25T20:43:31.382Z,1.33
2018-09-25T20:46:05.114Z,1.70
2018-09-25T20:48:38.417Z,1.60
2018-09-25T20:51:12.064Z,1.70
2018-09-25T20:53:46.657Z,1.73
2018-09-25T20:56:20.424Z,1.43
2018-09-25T20:58:53.993Z,1.43
2018-09-25T21:01:27.477Z,1.83
2018-09-25T21:04:01.026Z,1.40
2018-09-25T21:06:34.919Z,1.30
2018-09-25T21:09:08.675Z,1.40
2018-09-25T21:11:42.639Z,1.20
2018-09-25T21:14:16.220Z,1.30
2018-09-25T21:16:49.717Z,1.50
2018-09-25T21:19:23.767Z,1.30
2018-09-25T21:21:57.331Z,1.30
2018-09-25T21:24:31.194Z,1.10
2018-09-25T21:27:04.560Z,1.10
2018-09-25T21:29:38.396Z,1.20
2018-09-25T21:32:11.768Z,1.20
2018-09-25T21:34:45.165Z,1.20
2018-09-25T21:37:18.477Z,1.03
2018-09-25T21:39:52.118Z,1.00
2018-09-25T21:42:25.505Z,1.30
2018-09-25T21:44:58.898Z,0.90
2018-09-25T21:47:32.301Z,1.20
2018-09-25T21:50:06.642Z,1.23
2018-09-25T21:52:40.017Z,1.20
2018-09-25T21:55:13.854Z,1.47
2018-09-25T21:57:47.327Z,1.53
2018-09-25T22:00:20.665Z,1.90
2018-09-25T22:02:54.134Z,1.50
2018-09-25T22:05:27.610Z,1.63
2018-09-25T22:08:01.013Z,1.70
2018-09-25T22:10:34.822Z,1.73
2018-09-25T22:13:08.170Z,1.63
2018-09-25T22:15:42.175Z,1.37
2018-09-25T22:18:15.408Z,1.60
2018-09-25T22:20:48.681Z,1.63
2018-09-25T22:23:21.965Z,1.73
2018-09-25T22:25:56.088Z,1.63
2018-09-25T22:28:29.391Z,2.20
2018-09-25T22:31:02.928Z,1.63
2018-09-25T22:33:36.450Z,1.87
2018-09-25T22:36:09.862Z,1.70
2018-09-25T22:38:43.151Z,1.90
2018-09-25T22:41:16.541Z,2.00
2018-09-25T22:43:50.045Z,1.87
2018-09-25T22:46:23.934Z,2.00
2018-09-25T22:48:57.169Z,1.80
2018-09-25T22:51:30.634Z,2.37
2018-09-25T22:54:03.914Z,1.90
2018-09-25T22:56:37.436Z,1.60
2018-09-25T22:59:10.793Z,1.60
2018-09-25T23:01:44.431Z,1.83
2018-09-25T23:04:18.137Z,2.03
2018-09-25T23:06:51.554Z,1.70
2018-09-25T23:09:25.461Z,1.70
2018-09-25T23:11:58.909Z,1.47
2018-09-25T23:14:32.453Z,1.57
2018-09-25T23:17:06.140Z,1.90
2018-09-25T23:19:39.525Z,1.73
2018-09-25T23:22:13.144Z,1.70
2018-09-25T23:24:46.426Z,2.00
2018-09-25T23:27:20.300Z,1.33
2018-09-25T23:29:53.726Z,1.63
2018-09-25T23:32:27.261Z,1.50
2018-09-25T23:35:00.603Z,1.63
2018-09-25T23:37:34.366Z,2.03
2018-09-25T23:40:06.801Z,1.93
2018-09-25T23:42:40.116Z,2.10
2018-09-25T23:45:13.630Z,1.93
2018-09-25T23:47:49.005Z,1.93
2018-09-25T23:50:39.610Z,1.73
2018-09-25T23:53:13.880Z,1.83
2018-09-25T23:55:46.188Z,1.63
2018-09-25T23:58:21.500Z,1.80
